Estación Meteorológica Peña el Pijo (Robertgarden) [ 12/11/18 03:35:24 CET ]

Fecha Hora Presion(HPa) Temp (°C) Humedad % Rocio (°C) Viento ( m/s) Direccion Lluvia 1Hora(mm) Lluvia 24H(mm) LLuvia Total(mm)
2018-Jun-02 01:01:39 1009.800 11.2 75 6.9         254.85
2018-Jun-02 02:01:31 1009.500 9.9 78 6.2         254.85
2018-Jun-02 03:01:40 1009.100 9.3 80 6.0         254.85
2018-Jun-02 04:01:44 1008.700 8.7 82 5.8         254.85
2018-Jun-02 05:03:07 1009.000 8.1 83 5.4         254.85
2018-Jun-02 06:01:30 1008.300 8.1 84 5.6         254.85
2018-Jun-02 07:01:16 1008.200 8.4 85 6.0         254.85
2018-Jun-02 08:01:18 1008.300 9.2 86 7.0         254.85
2018-Jun-02 09:01:24 1008.300 10.6 86 8.3         254.85
2018-Jun-02 10:01:19 1008.400 15.1 83 12.2         254.85
2018-Jun-02 11:01:55 1008.200 15.5 63 8.5 0.7 N     254.85
2018-Jun-02 12:01:55 1008.600 16.8 55 7.7         254.85
2018-Jun-02 13:01:43 1008.600 16.1 65 9.5         254.85
2018-Jun-02 14:01:56 1008.200 15.9 70 10.5         254.85
2018-Jun-02 15:02:08 1007.600 17.1 62 9.8         254.85
2018-Jun-02 16:01:40 1007.200 17.8 65 11.1         254.85
2018-Jun-02 17:01:57 1006.400 19.1 63 11.9         254.85
2018-Jun-02 18:01:51 1006.100 19.2 58 10.7         254.85
2018-Jun-02 19:01:44 1006.300 16.9 61 9.3         254.85
2018-Jun-02 20:01:59 1007.500 13.3 65 6.8         254.85
2018-Jun-02 21:01:38 1007.300 10.3 75 6.0     0.51 0.51 255.37
2018-Jun-02 22:02:02 1008.100 9.4 78 5.7     2.07 2.59 257.44
2018-Jun-02 23:01:46 1008.100 8.9 82 6.0     3.62 6.73 261.59

Temperatura Máxima:19°    Temperatura Mínima:
Presión Máxima:1009.800 Hpa    Presión Mínima:1006.100 Hpa


Volver